Observation data for Tulia on 02/12/2018      Previous  Date  Next       Current Mesonet Observations  Soil Data  Daily Summary Page  Observations in Plain Language
KTIS 120600Z 19008KT M06/M15 A3021 RMK A01 T10581145  RH  051%=      5-min Rain = 0
KTIS 120605Z 19008KT M06/M15 A3021 RMK A01 T10601146  RH  051%=      5-min Rain = 0
KTIS 120610Z 19008KT M06/M15 A3021 RMK A01 T10631147  RH  052%=      5-min Rain = 0
KTIS 120615Z 19008KT M06/M15 A3021 RMK A01 T10641147  RH  053%=      5-min Rain = 0
KTIS 120620Z 19008KT M06/M15 A3021 RMK A01 T10621146  RH  052%=      5-min Rain = 0
KTIS 120625Z 19008KT M06/M15 A3022 RMK A01 T10621146  RH  052%=      5-min Rain = 0
KTIS 120630Z 19008KT M06/M15 A3022 RMK A01 T10631147  RH  052%=      5-min Rain = 0
KTIS 120635Z 19009KT M06/M15 A3022 RMK A01 T10641147  RH  053%=      5-min Rain = 0
KTIS 120640Z 19008KT M07/M15 A3022 RMK A01 T10651147  RH  053%=      5-min Rain = 0
KTIS 120645Z 19008KT M07/M15 A3022 RMK A01 T10661147  RH  054%=      5-min Rain = 0
KTIS 120650Z 19007KT M07/M15 A3022 RMK A01 T10661145  RH  054%=      5-min Rain = 0
KTIS 120655Z 19007KT M07/M15 A3022 RMK A01 T10651145  RH  054%=      5-min Rain = 0
KTIS 120700Z 19007KT M07/M15 A3022 RMK A01 T10671146  RH  054%=      5-min Rain = 0
KTIS 120705Z 19007KT M07/M15 A3022 RMK A01 T10691148  RH  054%=      5-min Rain = 0
KTIS 120710Z 18007KT M07/M15 A3022 RMK A01 T10701148  RH  055%=      5-min Rain = 0
KTIS 120715Z 18007KT M07/M15 A3022 RMK A01 T10721147  RH  056%=      5-min Rain = 0
KTIS 120720Z 19006KT M07/M15 A3022 RMK A01 T10731148  RH  055%=      5-min Rain = 0
KTIS 120725Z 19006KT M07/M15 A3023 RMK A01 T10741151  RH  055%=      5-min Rain = 0
KTIS 120730Z 17005KT M08/M15 A3023 RMK A01 T10781150  RH  057%=      5-min Rain = 0
KTIS 120735Z 17005KT M08/M15 A3023 RMK A01 T10791145  RH  060%=      5-min Rain = 0
KTIS 120740Z 17006KT M08/M15 A3024 RMK A01 T10761146  RH  058%=      5-min Rain = 0
KTIS 120745Z 18007KT M07/M15 A3024 RMK A01 T10721147  RH  056%=      5-min Rain = 0
KTIS 120750Z 17006KT M07/M15 A3024 RMK A01 T10741149  RH  056%=      5-min Rain = 0
KTIS 120755Z 17005KT M08/M15 A3024 RMK A01 T10781147  RH  059%=      5-min Rain = 0
KTIS 120800Z 17004KT M08/M15 A3024 RMK A01 T10791148  RH  059%=      5-min Rain = 0
KTIS 120805Z 17004KT M08/M15 A3024 RMK A01 T10821148  RH  060%=      5-min Rain = 0
KTIS 120810Z 17004KT M08/M15 A3024 RMK A01 T10841149  RH  060%=      5-min Rain = 0
KTIS 120815Z 17004KT M09/M15 A3024 RMK A01 T10861150  RH  061%=      5-min Rain = 0
KTIS 120820Z 17004KT M09/M15 A3024 RMK A01 T10871151  RH  061%=      5-min Rain = 0
KTIS 120825Z 17005KT M09/M15 A3023 RMK A01 T10871153  RH  060%=      5-min Rain = 0
KTIS 120830Z 16006KT M09/M15 A3023 RMK A01 T10861151  RH  060%=      5-min Rain = 0
KTIS 120835Z 16007KT M08/M14 A3023 RMK A01 T10821141  RH  063%=      5-min Rain = 0
KTIS 120840Z 16009KT M07/M14 A3023 RMK A01 T10741137  RH  062%=      5-min Rain = 0
KTIS 120845Z 17009KT M06/M13 A3022 RMK A01 T10641134  RH  058%=      5-min Rain = 0
KTIS 120850Z 17010KT M06/M14 A3022 RMK A01 T10581135  RH  055%=      5-min Rain = 0
KTIS 120855Z 18010KT M06/M14 A3022 RMK A01 T10561136  RH  054%=      5-min Rain = 0
KTIS 120900Z 18009KT M06/M14 A3023 RMK A01 T10631142  RH  055%=      5-min Rain = 0
KTIS 120905Z 19008KT M07/M15 A3023 RMK A01 T10701146  RH  055%=      5-min Rain = 0
KTIS 120910Z 19008KT M07/M15 A3023 RMK A01 T10741147  RH  057%=      5-min Rain = 0
KTIS 120915Z 19009KT M08/M15 A3023 RMK A01 T10761147  RH  058%=      5-min Rain = 0
KTIS 120920Z 19010KT M08/M15 A3023 RMK A01 T10751146  RH  058%=      5-min Rain = 0
KTIS 120925Z 19009KT M08/M14 A3023 RMK A01 T10751144  RH  058%=      5-min Rain = 0
KTIS 120930Z 20009KT M08/M15 A3024 RMK A01 T10751145  RH  058%=      5-min Rain = 0
KTIS 120935Z 20009KT M07/M14 A3024 RMK A01 T10731143  RH  058%=      5-min Rain = 0
KTIS 120940Z 20008KT M07/M14 A3024 RMK A01 T10701142  RH  057%=      5-min Rain = 0
KTIS 120945Z 20008KT M07/M14 A3024 RMK A01 T10681142  RH  056%=      5-min Rain = 0
KTIS 120950Z 20008KT M07/M14 A3023 RMK A01 T10711143  RH  057%=      5-min Rain = 0
KTIS 120955Z 20007KT M07/M14 A3023 RMK A01 T10691142  RH  057%=      5-min Rain = 0
KTIS 121000Z 20009KT M07/M14 A3023 RMK A01 T10681143  RH  056%=      5-min Rain = 0
KTIS 121005Z 20008KT M07/M14 A3023 RMK A01 T10721144  RH  057%=      5-min Rain = 0
KTIS 121010Z 21008KT M07/M14 A3024 RMK A01 T10721143  RH  058%=      5-min Rain = 0
KTIS 121015Z 21008KT M07/M14 A3024 RMK A01 T10661140  RH  057%=      5-min Rain = 0
KTIS 121020Z 21007KT M06/M14 A3024 RMK A01 T10641140  RH  056%=      5-min Rain = 0
KTIS 121025Z 21007KT M07/M14 A3024 RMK A01 T10661141  RH  056%=      5-min Rain = 0
KTIS 121030Z 21009KT M07/M14 A3024 RMK A01 T10651139  RH  056%=      5-min Rain = 0
KTIS 121035Z 21008KT M06/M14 A3024 RMK A01 T10611138  RH  055%=      5-min Rain = 0
KTIS 121040Z 20008KT M06/M14 A3023 RMK A01 T10611138  RH  055%=      5-min Rain = 0
KTIS 121045Z 20009KT M06/M14 A3023 RMK A01 T10621139  RH  055%=      5-min Rain = 0
KTIS 121050Z 20009KT M07/M14 A3023 RMK A01 T10671141  RH  057%=      5-min Rain = 0
KTIS 121055Z 20008KT M07/M14 A3024 RMK A01 T10721142  RH  058%=      5-min Rain = 0
KTIS 121100Z 19009KT M08/M14 A3024 RMK A01 T10761143  RH  060%=      5-min Rain = 0
KTIS 121105Z 19009KT M08/M14 A3025 RMK A01 T10751141  RH  060%=      5-min Rain = 0
KTIS 121110Z 19008KT M07/M14 A3025 RMK A01 T10731141  RH  059%=      5-min Rain = 0
KTIS 121115Z 19008KT M07/M14 A3025 RMK A01 T10741142  RH  059%=      5-min Rain = 0
KTIS 121120Z 19008KT M08/M14 A3025 RMK A01 T10771142  RH  060%=      5-min Rain = 0
KTIS 121125Z 19008KT M08/M14 A3024 RMK A01 T10751140  RH  061%=      5-min Rain = 0
KTIS 121130Z 19008KT M08/M14 A3024 RMK A01 T10751140  RH  061%=      5-min Rain = 0
KTIS 121135Z 19008KT M08/M14 A3025 RMK A01 T10751140  RH  061%=      5-min Rain = 0
KTIS 121140Z 19008KT M08/M14 A3024 RMK A01 T10781143  RH  061%=      5-min Rain = 0
KTIS 121145Z 19007KT M08/M14 A3024 RMK A01 T10801142  RH  062%=      5-min Rain = 0
KTIS 121150Z 18006KT M08/M14 A3024 RMK A01 T10801141  RH  063%=      5-min Rain = 0
KTIS 121155Z 18006KT M08/M14 A3024 RMK A01 T10811141  RH  063%=      5-min Rain = 0
KTIS 121200Z 17007KT M08/M14 A3024 RMK A01 T10841142  RH  064%=      5-min Rain = 0
KTIS 121205Z 16006KT M08/M14 A3024 RMK A01 T10811137  RH  065%=      5-min Rain = 0
KTIS 121210Z 16006KT M08/M13 A3024 RMK A01 T10781134  RH  065%=      5-min Rain = 0
KTIS 121215Z 14006KT M08/M13 A3025 RMK A01 T10751134  RH  064%=      5-min Rain = 0
KTIS 121220Z 13007KT M08/M14 A3025 RMK A01 T10761135  RH  064%=      5-min Rain = 0
KTIS 121225Z 13007KT M08/M14 A3025 RMK A01 T10791136  RH  064%=      5-min Rain = 0
KTIS 121230Z 12004KT M08/M14 A3025 RMK A01 T10821137  RH  065%=      5-min Rain = 0
KTIS 121235Z 08004KT M09/M14 A3026 RMK A01 T10861141  RH  065%=      5-min Rain = 0
KTIS 121240Z 07002KT M09/M14 A3027 RMK A01 T10881144  RH  065%=      5-min Rain = 0
KTIS 121245Z 03002KT M09/M15 A3027 RMK A01 T10881146  RH  064%=      5-min Rain = 0
KTIS 121250Z 07002KT M09/M15 A3027 RMK A01 T10901146  RH  065%=      5-min Rain = 0
KTIS 121255Z 12001KT M09/M15 A3028 RMK A01 T10911145  RH  066%=      5-min Rain = 0
KTIS 121300Z 14001KT M09/M14 A3028 RMK A01 T10911143  RH  067%=      5-min Rain = 0
KTIS 121305Z 12002KT M09/M14 A3027 RMK A01 T10901142  RH  067%=      5-min Rain = 0
KTIS 121310Z 12001KT M09/M14 A3028 RMK A01 T10881140  RH  067%=      5-min Rain = 0
KTIS 121315Z 12004KT M09/M14 A3027 RMK A01 T10861136  RH  068%=      5-min Rain = 0
KTIS 121320Z 13004KT M08/M13 A3027 RMK A01 T10831132  RH  069%=      5-min Rain = 0
KTIS 121325Z 15005KT M08/M13 A3028 RMK A01 T10821131  RH  068%=      5-min Rain = 0
KTIS 121330Z 15006KT M08/M13 A3027 RMK A01 T10811134  RH  066%=      5-min Rain = 0
KTIS 121335Z 14005KT M08/M14 A3028 RMK A01 T10811135  RH  066%=      5-min Rain = 0
KTIS 121340Z 14005KT M08/M14 A3028 RMK A01 T10821135  RH  066%=      5-min Rain = 0
KTIS 121345Z 13005KT M08/M14 A3028 RMK A01 T10821137  RH  066%=      5-min Rain = 0
KTIS 121350Z 13005KT M08/M14 A3028 RMK A01 T10831135  RH  067%=      5-min Rain = 0
KTIS 121355Z 13005KT M08/M13 A3028 RMK A01 T10811133  RH  067%=      5-min Rain = 0
KTIS 121400Z 13006KT M08/M13 A3028 RMK A01 T10781133  RH  066%=      5-min Rain = 0
KTIS 121405Z 13005KT M08/M13 A3028 RMK A01 T10751131  RH  065%=      5-min Rain = 0
KTIS 121410Z 11005KT M07/M13 A3028 RMK A01 T10731132  RH  063%=      5-min Rain = 0
KTIS 121415Z 09006KT M07/M14 A3029 RMK A01 T10741135  RH  062%=      5-min Rain = 0
KTIS 121420Z 10004KT M08/M14 A3029 RMK A01 T10771136  RH  063%=      5-min Rain = 0
KTIS 121425Z 11004KT M08/M14 A3029 RMK A01 T10761135  RH  063%=      5-min Rain = 0
KTIS 121430Z 11004KT M08/M14 A3029 RMK A01 T10761136  RH  063%=      5-min Rain = 0
KTIS 121435Z 09005KT M07/M14 A3029 RMK A01 T10731135  RH  062%=      5-min Rain = 0
KTIS 121440Z 09004KT M07/M14 A303 RMK A01 T10721136  RH  061%=      5-min Rain = 0
KTIS 121445Z 08005KT M07/M14 A303 RMK A01 T10711135  RH  061%=      5-min Rain = 0
KTIS 121450Z 08005KT M07/M13 A303 RMK A01 T10691134  RH  061%=      5-min Rain = 0
KTIS 121455Z 10004KT M07/M13 A303 RMK A01 T10661132  RH  060%=      5-min Rain = 0
KTIS 121500Z 11004KT M06/M13 A303 RMK A01 T10611131  RH  059%=      5-min Rain = 0
KTIS 121505Z 12004KT M06/M13 A303 RMK A01 T10611129  RH  059%=      5-min Rain = 0
KTIS 121510Z 13004KT M06/M13 A3031 RMK A01 T10561126  RH  059%=      5-min Rain = 0
KTIS 121515Z 14005KT M05/M13 A3031 RMK A01 T10521126  RH  057%=      5-min Rain = 0
KTIS 121520Z 14006KT M05/M12 A3031 RMK A01 T10461123  RH  056%=      5-min Rain = 0
KTIS 121525Z 15007KT M04/M12 A3031 RMK A01 T10411121  RH  055%=      5-min Rain = 0
KTIS 121530Z 14008KT M03/M12 A3031 RMK A01 T10341118  RH  053%=      5-min Rain = 0
KTIS 121535Z 14008KT M03/M12 A3031 RMK A01 T10281117  RH  051%=      5-min Rain = 0
KTIS 121540Z 14011KT M02/M12 A3031 RMK A01 T10191115  RH  049%=      5-min Rain = 0
KTIS 121545Z 13012KT M01/M12 A3031 RMK A01 T10141117  RH  046%=      5-min Rain = 0
KTIS 121550Z 15012KT M01/M12 A3031 RMK A01 T10071117  RH  044%=      5-min Rain = 0
KTIS 121555Z 15013KT M00/M12 A3031 RMK A01 T10041119  RH  042%=      5-min Rain = 0
KTIS 121600Z 15012KT M00/M12 A3031 RMK A01 T10041119  RH  042%=      5-min Rain = 0
KTIS 121605Z 14012KT M01/M12 A3031 RMK A01 T10061120  RH  043%=      5-min Rain = 0
KTIS 121610Z 14010KT M01/M12 A3031 RMK A01 T10091119  RH  044%=      5-min Rain = 0
KTIS 121615Z 14011KT M00/M12 A3031 RMK A01 T10021117  RH  042%=      5-min Rain = 0
KTIS 121620Z 15012KT 00/M12 A3031 RMK A01 T00031120  RH  040%=      5-min Rain = 0
KTIS 121625Z 14010G15KT 01/M12 A3031 RMK A01 T00051119  RH  040%=      5-min Rain = 0
KTIS 121630Z 15012G17KT 00/M12 A3031 RMK A01 T00031120  RH  040%=      5-min Rain = 0
KTIS 121635Z 15014KT 00/M12 A3031 RMK A01 T00031119  RH  040%=      5-min Rain = 0
KTIS 121640Z 14013KT 01/M12 A3031 RMK A01 T00071116  RH  040%=      5-min Rain = 0
KTIS 121645Z 14012KT 00/M12 A3031 RMK A01 T00041118  RH  040%=      5-min Rain = 0
KTIS 121650Z 14011G16KT 01/M12 A303 RMK A01 T00091115  RH  040%=      5-min Rain = 0
KTIS 121655Z 14010G15KT 01/M12 A3031 RMK A01 T00141115  RH  038%=      5-min Rain = 0
KTIS 121700Z 14013KT 02/M12 A303 RMK A01 T00161117  RH  037%=      5-min Rain = 0
KTIS 121705Z 14013KT 02/M12 A303 RMK A01 T00171118  RH  036%=      5-min Rain = 0
KTIS 121710Z 13012KT 01/M12 A303 RMK A01 T00131121  RH  037%=      5-min Rain = 0
KTIS 121715Z 14012G17KT 02/M12 A303 RMK A01 T00151119  RH  037%=      5-min Rain = 0
KTIS 121720Z 13011KT 02/M12 A303 RMK A01 T00171119  RH  036%=      5-min Rain = 0
KTIS 121725Z 13012KT 02/M12 A303 RMK A01 T00211123  RH  034%=      5-min Rain = 0
KTIS 121730Z 14012KT 02/M12 A3029 RMK A01 T00231123  RH  034%=      5-min Rain = 0
KTIS 121735Z 13013G18KT 02/M13 A3029 RMK A01 T00231125  RH  033%=      5-min Rain = 0
KTIS 121740Z 13012KT 02/M12 A3029 RMK A01 T00221124  RH  034%=      5-min Rain = 0
KTIS 121745Z 13012G18KT 02/M13 A3029 RMK A01 T00221127  RH  033%=      5-min Rain = 0
KTIS 121750Z 13013KT 02/M13 A3029 RMK A01 T00241127  RH  032%=      5-min Rain = 0
KTIS 121755Z 13013KT 02/M13 A3028 RMK A01 T00211128  RH  033%=      5-min Rain = 0
KTIS 121800Z 13010KT 03/M13 A3028 RMK A01 T00251126  RH  032%=      5-min Rain = 0
KTIS 121805Z 14010G16KT 03/M13 A3028 RMK A01 T00281126  RH  032%=      5-min Rain = 0
KTIS 121810Z 13012G17KT 03/M13 A3027 RMK A01 T00321127  RH  031%=      5-min Rain = 0
KTIS 121815Z 14013G18KT 03/M13 A3027 RMK A01 T00341127  RH  030%=      5-min Rain = 0
KTIS 121820Z 13012G17KT 04/M13 A3027 RMK A01 T00361125  RH  030%=      5-min Rain = 0
KTIS 121825Z 12014KT 04/M12 A3026 RMK A01 T00351124  RH  031%=      5-min Rain = 0
KTIS 121830Z 13013G18KT 04/M13 A3026 RMK A01 T00441125  RH  028%=      5-min Rain = 0
KTIS 121835Z 15014G19KT 05/M13 A3026 RMK A01 T00471131  RH  027%=      5-min Rain = 0
KTIS 121840Z 14014G19KT 04/M13 A3026 RMK A01 T00441131  RH  027%=      5-min Rain = 0
KTIS 121845Z 14014KT 05/M13 A3025 RMK A01 T00451128  RH  028%=      5-min Rain = 0
KTIS 121850Z 13015KT 05/M13 A3025 RMK A01 T00461128  RH  027%=      5-min Rain = 0
KTIS 121855Z 13014G21KT 05/M13 A3025 RMK A01 T00471127  RH  027%=      5-min Rain = 0
KTIS 121900Z 14013G18KT 05/M13 A3025 RMK A01 T00481128  RH  027%=      5-min Rain = 0
KTIS 121905Z 14014KT 05/M13 A3024 RMK A01 T00541129  RH  026%=      5-min Rain = 0
KTIS 121910Z 14014G20KT 06/M13 A3024 RMK A01 T00561128  RH  026%=      5-min Rain = 0
KTIS 121915Z 13015KT 06/M13 A3023 RMK A01 T00561131  RH  025%=      5-min Rain = 0
KTIS 121920Z 13014G20KT 06/M13 A3023 RMK A01 T00581131  RH  025%=      5-min Rain = 0
KTIS 121925Z 13014G21KT 06/M14 A3023 RMK A01 T00601135  RH  023%=      5-min Rain = 0
KTIS 121930Z 14015G20KT 07/M13 A3023 RMK A01 T00661134  RH  023%=      5-min Rain = 0
KTIS 121935Z 14016KT 06/M14 A3022 RMK A01 T00631140  RH  022%=      5-min Rain = 0
KTIS 121940Z 15016KT 07/M14 A3022 RMK A01 T00651141  RH  022%=      5-min Rain = 0
KTIS 121945Z 14015G22KT 07/M14 A3021 RMK A01 T00661138  RH  022%=      5-min Rain = 0
KTIS 121950Z 14015G21KT 07/M14 A3021 RMK A01 T00681135  RH  022%=      5-min Rain = 0
KTIS 121955Z 14014G19KT 07/M14 A3021 RMK A01 T00671136  RH  022%=      5-min Rain = 0
KTIS 122000Z 14017G22KT 07/M14 A302 RMK A01 T00691139  RH  021%=      5-min Rain = 0
KTIS 122005Z 14015G22KT 07/M14 A302 RMK A01 T00691140  RH  021%=      5-min Rain = 0
KTIS 122010Z 14015G24KT 07/M14 A302 RMK A01 T00691139  RH  021%=      5-min Rain = 0
KTIS 122015Z 14017G23KT 07/M14 A302 RMK A01 T00681140  RH  021%=      5-min Rain = 0
KTIS 122020Z 13016G21KT 07/M14 A302 RMK A01 T00711137  RH  021%=      5-min Rain = 0
KTIS 122025Z 13016G21KT 07/M14 A302 RMK A01 T00711138  RH  021%=      5-min Rain = 0
KTIS 122030Z 13016G21KT 07/M14 A3019 RMK A01 T00721139  RH  021%=      5-min Rain = 0
KTIS 122035Z 13016G21KT 07/M14 A3019 RMK A01 T00711140  RH  021%=      5-min Rain = 0
KTIS 122040Z 14014KT 07/M14 A3019 RMK A01 T00721141  RH  021%=      5-min Rain = 0
KTIS 122045Z 13015G21KT 07/M14 A3019 RMK A01 T00731140  RH  021%=      5-min Rain = 0
KTIS 122050Z 14016G23KT 07/M14 A3019 RMK A01 T00741138  RH  021%=      5-min Rain = 0
KTIS 122055Z 14016KT 08/M14 A3019 RMK A01 T00751138  RH  021%=      5-min Rain = 0
KTIS 122100Z 13017G22KT 07/M14 A3018 RMK A01 T00731136  RH  021%=      5-min Rain = 0
KTIS 122105Z 14016G21KT 08/M14 A3018 RMK A01 T00771135  RH  021%=      5-min Rain = 0
KTIS 122110Z 13015G20KT 08/M13 A3018 RMK A01 T00771134  RH  021%=      5-min Rain = 0
KTIS 122115Z 14017G23KT 08/M14 A3017 RMK A01 T00781135  RH  021%=      5-min Rain = 0
KTIS 122120Z 14015G21KT 08/M14 A3017 RMK A01 T00791135  RH  021%=      5-min Rain = 0
KTIS 122125Z 13016KT 08/M14 A3017 RMK A01 T00801136  RH  020%=      5-min Rain = 0
KTIS 122130Z 14016G23KT 08/M14 A3017 RMK A01 T00791136  RH  020%=      5-min Rain = 0
KTIS 122135Z 13016G22KT 08/M14 A3017 RMK A01 T00791135  RH  021%=      5-min Rain = 0
KTIS 122140Z 13017KT 08/M13 A3017 RMK A01 T00811134  RH  020%=      5-min Rain = 0
KTIS 122145Z 13017G23KT 08/M13 A3017 RMK A01 T00811133  RH  021%=      5-min Rain = 0
KTIS 122150Z 13017G22KT 08/M13 A3017 RMK A01 T00821132  RH  021%=      5-min Rain = 0
KTIS 122155Z 13016G22KT 08/M13 A3017 RMK A01 T00811132  RH  021%=      5-min Rain = 0
KTIS 122200Z 14015G20KT 08/M13 A3017 RMK A01 T00811132  RH  021%=      5-min Rain = 0
KTIS 122205Z 13018G23KT 08/M13 A3017 RMK A01 T00811132  RH  021%=      5-min Rain = 0
KTIS 122210Z 13015G21KT 08/M13 A3017 RMK A01 T00811130  RH  021%=      5-min Rain = 0
KTIS 122215Z 14017G23KT 08/M13 A3017 RMK A01 T00831128  RH  021%=      5-min Rain = 0
KTIS 122220Z 14017KT 08/M13 A3016 RMK A01 T00831127  RH  021%=      5-min Rain = 0
KTIS 122225Z 13018G24KT 08/M13 A3016 RMK A01 T00831127  RH  021%=      5-min Rain = 0
KTIS 122230Z 13019G26KT 08/M13 A3016 RMK A01 T00791127  RH  022%=      5-min Rain = 0
KTIS 122235Z 14019KT 08/M13 A3016 RMK A01 T00781127  RH  022%=      5-min Rain = 0
KTIS 122240Z 13017G22KT 08/M13 A3016 RMK A01 T00751127  RH  023%=      5-min Rain = 0
KTIS 122245Z 13016KT 07/M13 A3016 RMK A01 T00741126  RH  023%=      5-min Rain = 0
KTIS 122250Z 13017G22KT 07/M13 A3016 RMK A01 T00731126  RH  023%=      5-min Rain = 0
KTIS 122255Z 12018KT 07/M13 A3016 RMK A01 T00721126  RH  023%=      5-min Rain = 0
KTIS 122300Z 13017G23KT 07/M13 A3016 RMK A01 T00691127  RH  024%=      5-min Rain = 0
KTIS 122305Z 13018G23KT 07/M13 A3016 RMK A01 T00701126  RH  024%=      5-min Rain = 0
KTIS 122310Z 13017G23KT 07/M13 A3016 RMK A01 T00681126  RH  024%=      5-min Rain = 0
KTIS 122315Z 13015G20KT 07/M13 A3016 RMK A01 T00651126  RH  024%=      5-min Rain = 0
KTIS 122320Z 13016KT 06/M13 A3016 RMK A01 T00621126  RH  025%=      5-min Rain = 0
KTIS 122325Z 13017KT 06/M13 A3016 RMK A01 T00611126  RH  025%=      5-min Rain = 0
KTIS 122330Z 13018G23KT 06/M13 A3016 RMK A01 T00591127  RH  025%=      5-min Rain = 0
KTIS 122335Z 13017KT 06/M13 A3016 RMK A01 T00571126  RH  026%=      5-min Rain = 0
KTIS 122340Z 13015G20KT 06/M13 A3016 RMK A01 T00551126  RH  026%=      5-min Rain = 0
KTIS 122345Z 13015G20KT 05/M13 A3016 RMK A01 T00541125  RH  026%=      5-min Rain = 0
KTIS 122350Z 13014G19KT 05/M13 A3016 RMK A01 T00541125  RH  027%=      5-min Rain = 0
KTIS 122355Z 13015KT 05/M12 A3016 RMK A01 T00511124  RH  027%=      5-min Rain = 0
KTIS 130000Z 13016KT 05/M12 A3017 RMK A01 T00501123  RH  028%=      5-min Rain = 0
KTIS 130005Z 13014KT 05/M12 A3017 RMK A01 T00491121  RH  028%=      5-min Rain = 0
KTIS 130010Z 13017KT 05/M12 A3017 RMK A01 T00481121  RH  029%=      5-min Rain = 0
KTIS 130015Z 13016KT 05/M12 A3017 RMK A01 T00461120  RH  029%=      5-min Rain = 0
KTIS 130020Z 13013KT 04/M12 A3018 RMK A01 T00441119  RH  030%=      5-min Rain = 0
KTIS 130025Z 12013KT 04/M12 A3018 RMK A01 T00411118  RH  031%=      5-min Rain = 0
KTIS 130030Z 12013KT 04/M12 A3018 RMK A01 T00381118  RH  031%=      5-min Rain = 0
KTIS 130035Z 13013KT 04/M12 A3018 RMK A01 T00371118  RH  032%=      5-min Rain = 0
KTIS 130040Z 13012KT 03/M12 A3018 RMK A01 T00341118  RH  032%=      5-min Rain = 0
KTIS 130045Z 13011KT 03/M12 A3019 RMK A01 T00321118  RH  033%=      5-min Rain = 0
KTIS 130050Z 12009KT 03/M12 A3019 RMK A01 T00291117  RH  034%=      5-min Rain = 0
KTIS 130055Z 13011KT 03/M12 A3019 RMK A01 T00281117  RH  034%=      5-min Rain = 0
KTIS 130100Z 13011KT 03/M12 A3019 RMK A01 T00291115  RH  034%=      5-min Rain = 0
KTIS 130105Z 13012KT 03/M12 A3019 RMK A01 T00281115  RH  035%=      5-min Rain = 0
KTIS 130110Z 13012KT 03/M11 A3019 RMK A01 T00271114  RH  035%=      5-min Rain = 0
KTIS 130115Z 12011KT 03/M11 A302 RMK A01 T00261113  RH  036%=      5-min Rain = 0
KTIS 130120Z 12011KT 02/M11 A302 RMK A01 T00241111  RH  037%=      5-min Rain = 0
KTIS 130125Z 12011KT 02/M11 A302 RMK A01 T00211110  RH  037%=      5-min Rain = 0
KTIS 130130Z 12010KT 02/M11 A302 RMK A01 T00191110  RH  038%=      5-min Rain = 0
KTIS 130135Z 12011KT 02/M11 A302 RMK A01 T00181109  RH  039%=      5-min Rain = 0
KTIS 130140Z 12012KT 02/M11 A3021 RMK A01 T00181109  RH  039%=      5-min Rain = 0
KTIS 130145Z 12011KT 02/M11 A3021 RMK A01 T00191109  RH  039%=      5-min Rain = 0
KTIS 130150Z 12010KT 02/M11 A3021 RMK A01 T00181108  RH  039%=      5-min Rain = 0
KTIS 130155Z 12011KT 02/M11 A3021 RMK A01 T00161108  RH  040%=      5-min Rain = 0
KTIS 130200Z 11009KT 01/M11 A3021 RMK A01 T00141107  RH  041%=      5-min Rain = 0
KTIS 130205Z 11010KT 01/M11 A3022 RMK A01 T00121108  RH  041%=      5-min Rain = 0
KTIS 130210Z 12010KT 01/M11 A3022 RMK A01 T00101108  RH  041%=      5-min Rain = 0
KTIS 130215Z 12011KT 01/M11 A3021 RMK A01 T00091108  RH  042%=      5-min Rain = 0
KTIS 130220Z 12010KT 01/M11 A3022 RMK A01 T00081108  RH  042%=      5-min Rain = 0
KTIS 130225Z 12010KT 01/M11 A3022 RMK A01 T00061108  RH  043%=      5-min Rain = 0
KTIS 130230Z 12011KT 01/M11 A3022 RMK A01 T00061108  RH  043%=      5-min Rain = 0
KTIS 130235Z 12011KT 01/M11 A3022 RMK A01 T00051108  RH  043%=      5-min Rain = 0
KTIS 130240Z 12012KT 00/M11 A3022 RMK A01 T00041108  RH  043%=      5-min Rain = 0
KTIS 130245Z 12010KT 00/M11 A3022 RMK A01 T00011109  RH  044%=      5-min Rain = 0
KTIS 130250Z 13011KT 00/11 A3022 RMK A01 T00-00-108  RH  045%=      5-min Rain = 0
KTIS 130255Z 12010KT M00/M11 A3022 RMK A01 T10021107  RH  046%=      5-min Rain = 0
KTIS 130300Z 12010KT M01/M11 A3022 RMK A01 T10061109  RH  046%=      5-min Rain = 0
KTIS 130305Z 12010KT M01/M11 A3022 RMK A01 T10081108  RH  047%=      5-min Rain = 0
KTIS 130310Z 13010KT M01/M11 A3022 RMK A01 T10091108  RH  048%=      5-min Rain = 0
KTIS 130315Z 13010KT M01/M11 A3023 RMK A01 T10091108  RH  047%=      5-min Rain = 0
KTIS 130320Z 13010KT M01/M11 A3023 RMK A01 T10081108  RH  047%=      5-min Rain = 0
KTIS 130325Z 12009KT M01/M11 A3024 RMK A01 T10091108  RH  048%=      5-min Rain = 0
KTIS 130330Z 12008KT M01/M11 A3024 RMK A01 T10131107  RH  049%=      5-min Rain = 0
KTIS 130335Z 13008KT M02/M11 A3024 RMK A01 T10151108  RH  050%=      5-min Rain = 0
KTIS 130340Z 12007KT M02/M11 A3024 RMK A01 T10171108  RH  050%=      5-min Rain = 0
KTIS 130345Z 12007KT M02/M11 A3024 RMK A01 T10211107  RH  053%=      5-min Rain = 0
KTIS 130350Z 11008KT M03/M11 A3024 RMK A01 T10261109  RH  054%=      5-min Rain = 0
KTIS 130355Z 12008KT M03/M11 A3024 RMK A01 T10281111  RH  054%=      5-min Rain = 0
KTIS 130400Z 13009KT M03/M11 A3023 RMK A01 T10281111  RH  054%=      5-min Rain = 0
KTIS 130405Z 13010KT M03/M11 A3023 RMK A01 T10251109  RH  053%=      5-min Rain = 0
KTIS 130410Z 12008KT M02/M11 A3023 RMK A01 T10241106  RH  054%=      5-min Rain = 0
KTIS 130415Z 12007KT M03/M11 A3024 RMK A01 T10291108  RH  055%=      5-min Rain = 0
KTIS 130420Z 12007KT M03/M11 A3024 RMK A01 T10331109  RH  057%=      5-min Rain = 0
KTIS 130425Z 12007KT M03/M11 A3024 RMK A01 T10341110  RH  057%=      5-min Rain = 0
KTIS 130430Z 12007KT M03/M11 A3024 RMK A01 T10331109  RH  057%=      5-min Rain = 0
KTIS 130435Z 12007KT M03/M11 A3024 RMK A01 T10321108  RH  057%=      5-min Rain = 0
KTIS 130440Z 11006KT M03/M11 A3024 RMK A01 T10341109  RH  057%=      5-min Rain = 0
KTIS 130445Z 11003KT M04/M11 A3024 RMK A01 T10361109  RH  058%=      5-min Rain = 0
KTIS 130450Z 11002KT M04/M11 A3025 RMK A01 T10391114  RH  057%=      5-min Rain = 0
KTIS 130455Z 14003KT M04/M12 A3025 RMK A01 T10411115  RH  057%=      5-min Rain = 0
KTIS 130500Z 13004KT M04/M11 A3025 RMK A01 T10391112  RH  057%=      5-min Rain = 0
KTIS 130505Z 10003KT M04/M11 A3025 RMK A01 T10381113  RH  057%=      5-min Rain = 0
KTIS 130510Z 04003KT M04/M12 A3026 RMK A01 T10381117  RH  055%=      5-min Rain = 0
KTIS 130515Z 04003KT M05/M13 A3026 RMK A01 T10501131  RH  054%=      5-min Rain = 0
KTIS 130520Z 07002KT M05/M13 A3026 RMK A01 T10541126  RH  058%=      5-min Rain = 0
KTIS 130525Z 08004KT M05/M12 A3025 RMK A01 T10521121  RH  059%=      5-min Rain = 0
KTIS 130530Z 07004KT M05/M13 A3025 RMK A01 T10521128  RH  056%=      5-min Rain = 0
KTIS 130535Z 08005KT M06/M13 A3025 RMK A01 T10561126  RH  059%=      5-min Rain = 0
KTIS 130540Z 08005KT M06/M12 A3025 RMK A01 T10581123  RH  061%=      5-min Rain = 0
KTIS 130545Z 08005KT M06/M12 A3025 RMK A01 T10581123  RH  061%=      5-min Rain = 0
KTIS 130550Z 08007KT M06/M12 A3025 RMK A01 T10581124  RH  060%=      5-min Rain = 0
KTIS 130555Z 09007KT M06/M12 A3025 RMK A01 T10611123  RH  062%=      5-min Rain = 0

Page generated in 0.027 seconds.